Portada
METAR-TAF:

METAR-TAF

Aeropuertos :

Pratt Industrial Airport

Pratt, Kansas, Estados Unidos

latitud: 37-42N, longitud: 098-45W, altitud: 595 m

Observación

El informe se hizo hace 39 minutos, a las 08:15 UTC
Viento 7 kt del este
Temperatura 16°C
Humedad 94%
Presión 1011 hPa
Visibilidad: 16.1 km
Nubes dispersas a una altura de 3200 ft
Cielo nuboso a una altura de 9000 ft
Cielo cubierto a una altura de 12000 ft

METAR: KPTT 250815Z AUTO 08007KT 10SM SCT032 BKN090 OVC120 16/15 A2986 RMK AO2 LTG DSNT N T01570150

Hora: 03:54 (08:54 UTC)


TAF: falta

Observaciones y pronósticos meteorológicos de más de 4000 aeropuertos (mensajes METAR y TAF).

Los puntos amarillos y rojos representan las estaciones disponibles.

Ponga el ratón en el punto deseado para ver el nombre de la estación.

Haga clic para ver las observaciones y los pronósticos meteorológicos.

Para cambiar el mapa : haga clic en los botones verdes con una cruz de color negro para hacer un zoom, en el botón verde con un guión para alejar o en las flechas verdes para mapas adyacentes.


METAR-TAF: